createdAt,value
2017-06-26T00:00:05.736Z,0
2017-06-26T00:01:14.999Z,0
2017-06-26T00:02:23.886Z,0
2017-06-26T00:03:32.773Z,0
2017-06-26T00:04:41.981Z,0
2017-06-26T00:05:51.190Z,0
2017-06-26T00:07:00.274Z,0
2017-06-26T00:08:09.158Z,0
2017-06-26T00:09:18.046Z,0
2017-06-26T00:10:26.938Z,0
2017-06-26T00:11:35.825Z,0
2017-06-26T00:12:44.714Z,0
2017-06-26T00:13:53.923Z,0
2017-06-26T00:15:02.811Z,0
2017-06-26T00:16:11.697Z,0
2017-06-26T00:17:20.910Z,0
2017-06-26T00:18:29.950Z,0
2017-06-26T00:19:38.834Z,0
2017-06-26T00:20:48.046Z,0
2017-06-26T00:21:57.261Z,0
2017-06-26T00:23:06.151Z,0
2017-06-26T00:24:15.662Z,0
2017-06-26T00:25:24.551Z,0
2017-06-26T00:26:33.761Z,0
2017-06-26T00:27:43.296Z,0
2017-06-26T00:28:52.185Z,0
2017-06-26T00:30:01.646Z,0
2017-06-26T00:31:10.860Z,0
2017-06-26T00:32:20.069Z,0
2017-06-26T00:33:28.957Z,0
2017-06-26T00:34:37.842Z,0
2017-06-26T00:35:47.039Z,0
2017-06-26T00:36:56.248Z,0
2017-06-26T00:38:05.135Z,0
2017-06-26T00:39:14.346Z,0
2017-06-26T00:40:23.236Z,0
2017-06-26T00:41:32.273Z,0
2017-06-26T00:42:41.482Z,0
2017-06-26T00:43:50.696Z,0
2017-06-26T00:44:59.584Z,0
2017-06-26T00:46:08.795Z,0
2017-06-26T00:47:18.531Z,0
2017-06-26T00:48:27.741Z,0
2017-06-26T00:49:36.626Z,0
2017-06-26T00:50:45.514Z,0
2017-06-26T00:51:55.050Z,0
2017-06-26T00:53:03.942Z,0
2017-06-26T00:54:12.830Z,0
2017-06-26T00:55:21.711Z,0
2017-06-26T00:56:30.599Z,0
2017-06-26T00:57:39.485Z,0
2017-06-26T00:58:48.369Z,0
2017-06-26T00:59:57.264Z,0
2017-06-26T01:01:06.160Z,0
2017-06-26T01:02:15.373Z,0
2017-06-26T01:03:24.598Z,0
2017-06-26T01:04:33.862Z,0
2017-06-26T01:05:42.749Z,0
2017-06-26T01:06:51.632Z,0
2017-06-26T01:08:00.524Z,0
2017-06-26T01:09:09.739Z,0
2017-06-26T01:10:18.724Z,0
2017-06-26T01:11:27.610Z,0
2017-06-26T01:12:37.473Z,0
2017-06-26T01:13:46.359Z,0
2017-06-26T01:14:55.574Z,0
2017-06-26T01:16:04.514Z,0
2017-06-26T01:17:13.403Z,0
2017-06-26T01:18:22.611Z,0
2017-06-26T01:19:31.497Z,0
2017-06-26T01:20:40.385Z,0
2017-06-26T01:21:49.425Z,0
2017-06-26T01:22:58.316Z,0
2017-06-26T01:24:07.532Z,0
2017-06-26T01:25:16.418Z,0
2017-06-26T01:26:25.307Z,0
2017-06-26T01:27:34.994Z,0
2017-06-26T01:28:43.885Z,0
2017-06-26T01:29:53.095Z,0
2017-06-26T01:31:01.982Z,0
2017-06-26T01:32:10.868Z,0
2017-06-26T01:33:20.055Z,0
2017-06-26T01:34:28.944Z,0
2017-06-26T01:35:38.812Z,0
2017-06-26T01:36:47.709Z,0
2017-06-26T01:37:56.593Z,0
2017-06-26T01:39:06.105Z,0
2017-06-26T01:40:14.995Z,0
2017-06-26T01:41:24.208Z,0
2017-06-26T01:42:33.098Z,0
2017-06-26T01:43:42.309Z,0
2017-06-26T01:44:51.669Z,0
2017-06-26T01:46:01.205Z,0
2017-06-26T01:47:10.420Z,0
2017-06-26T01:48:19.631Z,0
2017-06-26T01:49:28.519Z,0
2017-06-26T01:50:38.152Z,0
2017-06-26T01:51:47.043Z,0
2017-06-26T01:52:55.929Z,0
2017-06-26T01:54:05.462Z,0
2017-06-26T01:55:14.674Z,0
2017-06-26T01:56:23.614Z,0
2017-06-26T01:57:32.827Z,0
2017-06-26T01:58:41.715Z,0
2017-06-26T01:59:50.923Z,0
2017-06-26T02:01:00.459Z,0
2017-06-26T02:02:09.349Z,0
2017-06-26T02:03:18.235Z,0
2017-06-26T02:04:27.127Z,0
2017-06-26T02:05:36.335Z,0
2017-06-26T02:06:45.544Z,0
2017-06-26T02:07:54.486Z,0
2017-06-26T02:09:03.374Z,0
2017-06-26T02:10:12.262Z,0
2017-06-26T02:11:21.804Z,0
2017-06-26T02:12:31.017Z,0
2017-06-26T02:13:40.104Z,0
2017-06-26T02:14:48.989Z,0
2017-06-26T02:15:57.878Z,0
2017-06-26T02:17:06.763Z,0
2017-06-26T02:18:16.298Z,0
2017-06-26T02:19:25.335Z,0
2017-06-26T02:20:34.550Z,0
2017-06-26T02:21:43.437Z,0
2017-06-26T02:22:52.656Z,0
2017-06-26T02:24:01.543Z,0
2017-06-26T02:25:10.758Z,0
2017-06-26T02:26:19.646Z,0
2017-06-26T02:27:28.533Z,0
2017-06-26T02:28:37.742Z,0
2017-06-26T02:29:46.952Z,0
2017-06-26T02:30:55.942Z,0
2017-06-26T02:32:04.834Z,0
2017-06-26T02:33:14.045Z,0
2017-06-26T02:34:23.266Z,0
2017-06-26T02:35:32.480Z,0
2017-06-26T02:36:41.518Z,0
2017-06-26T02:37:50.416Z,0
2017-06-26T02:38:59.626Z,0
2017-06-26T02:40:08.839Z,0
2017-06-26T02:41:17.729Z,0
2017-06-26T02:42:26.615Z,0
2017-06-26T02:43:35.505Z,0
2017-06-26T02:44:44.724Z,0
2017-06-26T02:45:53.937Z,0
2017-06-26T02:47:02.821Z,0
2017-06-26T02:48:12.093Z,0
2017-06-26T02:49:21.630Z,0
2017-06-26T02:50:30.838Z,0
2017-06-26T02:51:39.731Z,5
2017-06-26T02:52:48.618Z,5
2017-06-26T02:53:57.832Z,5
2017-06-26T02:55:06.721Z,5
2017-06-26T02:56:15.610Z,5
2017-06-26T02:57:24.496Z,5
2017-06-26T02:58:33.707Z,5
2017-06-26T02:59:42.971Z,5
2017-06-26T03:00:51.855Z,5
2017-06-26T03:02:01.397Z,10
2017-06-26T03:03:10.286Z,10
2017-06-26T03:04:19.174Z,10
2017-06-26T03:05:28.488Z,10
2017-06-26T03:06:37.699Z,10
2017-06-26T03:07:46.915Z,10
2017-06-26T03:08:56.128Z,15
2017-06-26T03:10:05.339Z,15
2017-06-26T03:11:14.577Z,15
2017-06-26T03:12:23.787Z,15
2017-06-26T03:13:32.670Z,15
2017-06-26T03:14:41.560Z,20
2017-06-26T03:15:50.446Z,20
2017-06-26T03:16:59.669Z,20
2017-06-26T03:18:08.559Z,20
2017-06-26T03:19:17.446Z,25
2017-06-26T03:20:26.329Z,25
2017-06-26T03:21:35.225Z,25
2017-06-26T03:22:44.587Z,25
2017-06-26T03:23:53.802Z,30
2017-06-26T03:25:02.702Z,30
2017-06-26T03:26:11.591Z,30
2017-06-26T03:27:20.481Z,30
2017-06-26T03:28:29.472Z,35
2017-06-26T03:29:38.685Z,35
2017-06-26T03:30:47.892Z,35
2017-06-26T03:31:56.780Z,40
2017-06-26T03:33:05.663Z,40
2017-06-26T03:34:14.699Z,40
2017-06-26T03:35:23.583Z,40
2017-06-26T03:36:32.473Z,40
2017-06-26T03:37:41.368Z,45
2017-06-26T03:38:50.254Z,45
2017-06-26T03:39:59.440Z,50
2017-06-26T03:41:08.993Z,50
2017-06-26T03:42:17.884Z,50
2017-06-26T03:43:27.095Z,50
2017-06-26T03:44:35.983Z,50
2017-06-26T03:45:44.871Z,55
2017-06-26T03:46:54.087Z,55
2017-06-26T03:48:02.972Z,50
2017-06-26T03:49:12.186Z,55
2017-06-26T03:50:21.077Z,55
2017-06-26T03:51:30.069Z,55
2017-06-26T03:52:38.953Z,55
2017-06-26T03:53:47.844Z,55
2017-06-26T03:54:56.731Z,60
2017-06-26T03:56:05.615Z,60
2017-06-26T03:57:14.707Z,60
2017-06-26T03:58:23.598Z,65
2017-06-26T03:59:32.481Z,65
2017-06-26T04:00:41.375Z,65
2017-06-26T04:01:50.265Z,65
2017-06-26T04:02:59.630Z,70
2017-06-26T04:04:08.518Z,70
2017-06-26T04:05:17.406Z,75
2017-06-26T04:06:26.293Z,75
2017-06-26T04:07:35.506Z,75
2017-06-26T04:08:44.392Z,75
2017-06-26T04:09:53.600Z,80
2017-06-26T04:11:02.489Z,80
2017-06-26T04:12:11.375Z,90
2017-06-26T04:13:20.264Z,90
2017-06-26T04:14:29.252Z,85
2017-06-26T04:15:38.138Z,85
2017-06-26T04:16:47.025Z,90
2017-06-26T04:17:55.911Z,95
2017-06-26T04:19:04.793Z,105
2017-06-26T04:20:14.432Z,100
2017-06-26T04:21:24.616Z,110
2017-06-26T04:22:33.507Z,115
2017-06-26T04:23:42.400Z,120
2017-06-26T04:24:51.286Z,125
2017-06-26T04:26:00.422Z,125
2017-06-26T04:27:09.311Z,125
2017-06-26T04:28:18.195Z,125
2017-06-26T04:29:27.082Z,125
2017-06-26T04:30:36.628Z,120
2017-06-26T04:31:45.896Z,105
2017-06-26T04:32:55.111Z,105
2017-06-26T04:34:03.998Z,110
2017-06-26T04:35:12.882Z,105
2017-06-26T04:36:21.768Z,105
2017-06-26T04:37:30.814Z,105
2017-06-26T04:38:39.700Z,110
2017-06-26T04:39:48.583Z,120
2017-06-26T04:40:57.474Z,115
2017-06-26T04:42:06.685Z,115
2017-06-26T04:43:16.093Z,110
2017-06-26T04:44:24.989Z,115
2017-06-26T04:45:33.877Z,115
2017-06-26T04:46:42.764Z,115
2017-06-26T04:47:51.970Z,115
2017-06-26T04:49:01.693Z,115
2017-06-26T04:50:10.913Z,115
2017-06-26T04:51:20.125Z,120
2017-06-26T04:52:29.016Z,120
2017-06-26T04:53:38.226Z,120
2017-06-26T04:54:47.108Z,115
2017-06-26T04:55:56.319Z,115
2017-06-26T04:57:05.201Z,115
2017-06-26T04:58:14.412Z,115
2017-06-26T04:59:23.623Z,115
2017-06-26T05:00:32.993Z,115
2017-06-26T05:01:42.206Z,115
2017-06-26T05:02:51.442Z,120
2017-06-26T05:04:00.661Z,125
2017-06-26T05:05:09.875Z,115
2017-06-26T05:06:19.422Z,120
2017-06-26T05:07:28.311Z,120
2017-06-26T05:08:37.198Z,125
2017-06-26T05:09:46.413Z,150
2017-06-26T05:10:55.626Z,155
2017-06-26T05:12:04.769Z,165
2017-06-26T05:13:14.307Z,175
2017-06-26T05:14:23.518Z,190
2017-06-26T05:15:32.732Z,200
2017-06-26T05:16:41.618Z,195
2017-06-26T05:17:50.982Z,185
2017-06-26T05:18:59.871Z,180
2017-06-26T05:20:09.085Z,160
2017-06-26T05:21:18.296Z,140
2017-06-26T05:22:27.511Z,125
2017-06-26T05:23:36.553Z,120
2017-06-26T05:24:45.441Z,120
2017-06-26T05:25:54.331Z,120
2017-06-26T05:27:03.219Z,120
2017-06-26T05:28:12.105Z,135
2017-06-26T05:29:21.618Z,140
2017-06-26T05:30:30.769Z,140
2017-06-26T05:31:39.689Z,160
2017-06-26T05:32:48.580Z,165
2017-06-26T05:33:57.469Z,165
2017-06-26T05:35:06.833Z,165
2017-06-26T05:36:15.721Z,180
2017-06-26T05:37:24.935Z,195
2017-06-26T05:38:34.148Z,205
2017-06-26T05:39:43.360Z,205
2017-06-26T05:40:52.281Z,235
2017-06-26T05:42:01.495Z,230
2017-06-26T05:43:10.392Z,210
2017-06-26T05:44:19.278Z,205
2017-06-26T05:45:28.499Z,225
2017-06-26T05:46:37.387Z,295
2017-06-26T05:47:46.926Z,295
2017-06-26T05:48:55.814Z,270
2017-06-26T05:50:05.030Z,235
2017-06-26T05:51:13.953Z,255
2017-06-26T05:52:22.848Z,270
2017-06-26T05:53:32.075Z,260
2017-06-26T05:54:41.291Z,235
2017-06-26T05:55:50.178Z,235
2017-06-26T05:56:59.063Z,300
2017-06-26T05:58:08.602Z,330
2017-06-26T05:59:17.817Z,315
2017-06-26T06:00:27.028Z,280
2017-06-26T06:01:36.268Z,245
2017-06-26T06:02:45.481Z,185
2017-06-26T06:03:54.373Z,140
2017-06-26T06:05:03.261Z,150
2017-06-26T06:06:12.166Z,175
2017-06-26T06:07:21.382Z,180
2017-06-26T06:08:30.597Z,145
2017-06-26T06:09:39.485Z,100
2017-06-26T06:10:48.374Z,95
2017-06-26T06:11:57.696Z,120
2017-06-26T06:13:06.586Z,175
2017-06-26T06:14:15.474Z,165
2017-06-26T06:15:24.397Z,170
2017-06-26T06:16:33.614Z,265
2017-06-26T06:17:42.977Z,190
2017-06-26T06:18:52.187Z,225
2017-06-26T06:20:01.400Z,225
2017-06-26T06:21:10.617Z,225
2017-06-26T06:22:20.160Z,200
2017-06-26T06:23:29.152Z,180
2017-06-26T06:24:38.372Z,220
2017-06-26T06:25:47.288Z,220
2017-06-26T06:26:56.177Z,205
2017-06-26T06:28:05.072Z,220
2017-06-26T06:29:14.110Z,235
2017-06-26T06:30:23.000Z,230
2017-06-26T06:31:32.217Z,280
2017-06-26T06:32:41.754Z,295
2017-06-26T06:33:50.648Z,280
2017-06-26T06:34:59.792Z,260
2017-06-26T06:36:08.682Z,240
2017-06-26T06:37:18.219Z,270
2017-06-26T06:38:27.111Z,275
2017-06-26T06:39:36.002Z,305
2017-06-26T06:40:45.090Z,325
2017-06-26T06:41:54.960Z,295
2017-06-26T06:43:03.851Z,250
2017-06-26T06:44:12.739Z,270
2017-06-26T06:45:21.953Z,295
2017-06-26T06:46:31.424Z,310
2017-06-26T06:47:40.643Z,350
2017-06-26T06:48:49.532Z,340
2017-06-26T06:49:58.421Z,295
2017-06-26T06:51:07.960Z,250
2017-06-26T06:52:17.326Z,220
2017-06-26T06:53:26.218Z,220
2017-06-26T06:54:35.112Z,240
2017-06-26T06:55:44.337Z,260
2017-06-26T06:56:53.551Z,355
2017-06-26T06:58:02.489Z,435
2017-06-26T06:59:11.386Z,420
2017-06-26T07:00:20.335Z,335
2017-06-26T07:01:30.198Z,265
2017-06-26T07:02:39.087Z,295
2017-06-26T07:03:48.505Z,340
2017-06-26T07:04:57.398Z,380
2017-06-26T07:06:06.286Z,400
2017-06-26T07:07:15.500Z,285
2017-06-26T07:08:24.393Z,215
2017-06-26T07:09:33.445Z,265
2017-06-26T07:10:42.660Z,370
2017-06-26T07:11:51.558Z,340
2017-06-26T07:13:00.777Z,325
2017-06-26T07:14:09.990Z,375
2017-06-26T07:15:19.032Z,395
2017-06-26T07:16:28.242Z,315
2017-06-26T07:17:37.139Z,290
2017-06-26T07:18:46.036Z,265
2017-06-26T07:19:54.930Z,240
2017-06-26T07:21:03.843Z,280
2017-06-26T07:22:12.735Z,400
2017-06-26T07:23:21.957Z,325
2017-06-26T07:24:31.170Z,275
2017-06-26T07:25:40.063Z,315
2017-06-26T07:26:48.955Z,350
2017-06-26T07:27:57.843Z,445
2017-06-26T07:29:06.731Z,400
2017-06-26T07:30:15.960Z,330
2017-06-26T07:31:25.499Z,250
2017-06-26T07:32:34.870Z,230
2017-06-26T07:33:44.095Z,230
2017-06-26T07:34:52.996Z,235
2017-06-26T07:36:01.887Z,250
2017-06-26T07:37:10.788Z,290
2017-06-26T07:38:20.150Z,300
2017-06-26T07:39:29.364Z,275
2017-06-26T07:40:38.284Z,270
2017-06-26T07:41:47.181Z,220
2017-06-26T07:42:56.075Z,215
2017-06-26T07:44:05.443Z,220
2017-06-26T07:45:14.340Z,285
2017-06-26T07:46:23.230Z,360
2017-06-26T07:47:32.457Z,355
2017-06-26T07:48:41.352Z,320
2017-06-26T07:49:50.544Z,290
2017-06-26T07:50:59.443Z,265
2017-06-26T07:52:08.330Z,335
2017-06-26T07:53:17.219Z,385
2017-06-26T07:54:26.110Z,405
2017-06-26T07:55:35.413Z,360
2017-06-26T07:56:44.305Z,440
2017-06-26T07:57:53.522Z,405
2017-06-26T07:59:02.739Z,385
2017-06-26T08:00:11.634Z,330
2017-06-26T08:01:20.777Z,355
2017-06-26T08:02:29.991Z,455
2017-06-26T08:03:38.886Z,485
2017-06-26T08:04:47.777Z,445
2017-06-26T08:05:56.666Z,425
2017-06-26T08:07:06.049Z,350
2017-06-26T08:08:15.268Z,350
2017-06-26T08:09:24.165Z,340
2017-06-26T08:10:33.049Z,415
2017-06-26T08:11:42.263Z,440
2017-06-26T08:12:51.531Z,425
2017-06-26T08:14:00.423Z,440
2017-06-26T08:15:09.639Z,475
2017-06-26T08:16:18.859Z,445
2017-06-26T08:17:27.747Z,405
2017-06-26T08:18:36.887Z,390
2017-06-26T08:19:45.778Z,410
2017-06-26T08:20:54.672Z,425
2017-06-26T08:22:03.906Z,360
2017-06-26T08:23:13.455Z,380
2017-06-26T08:24:23.078Z,400
2017-06-26T08:25:31.972Z,390
2017-06-26T08:26:41.187Z,330
2017-06-26T08:27:50.081Z,310
2017-06-26T08:28:59.639Z,305
2017-06-26T08:30:08.732Z,320
2017-06-26T08:31:17.950Z,345
2017-06-26T08:32:26.839Z,410
2017-06-26T08:33:35.727Z,435
2017-06-26T08:34:44.621Z,420
2017-06-26T08:35:53.615Z,415
2017-06-26T08:37:02.508Z,335
2017-06-26T08:38:11.400Z,350
2017-06-26T08:39:20.291Z,375
2017-06-26T08:40:29.835Z,455
2017-06-26T08:41:39.256Z,425
2017-06-26T08:42:48.151Z,390
2017-06-26T08:43:57.081Z,385
2017-06-26T08:45:06.299Z,405
2017-06-26T08:46:15.520Z,400
2017-06-26T08:47:24.888Z,385
2017-06-26T08:48:34.114Z,405
2017-06-26T08:49:43.659Z,440
2017-06-26T08:50:52.568Z,445
2017-06-26T08:52:02.114Z,370
2017-06-26T08:53:11.661Z,275
2017-06-26T08:54:20.885Z,270
2017-06-26T08:55:29.787Z,255
2017-06-26T08:56:39.009Z,235
2017-06-26T08:57:47.905Z,245
2017-06-26T08:58:57.123Z,260
2017-06-26T09:00:06.354Z,270
2017-06-26T09:01:15.896Z,265
2017-06-26T09:02:25.114Z,280
2017-06-26T09:03:34.008Z,315
2017-06-26T09:04:43.376Z,365
2017-06-26T09:05:52.271Z,440
2017-06-26T09:07:01.160Z,525
2017-06-26T09:08:10.054Z,575
2017-06-26T09:09:18.955Z,580
2017-06-26T09:10:28.318Z,585
2017-06-26T09:11:37.220Z,575
2017-06-26T09:12:46.114Z,540
2017-06-26T09:13:55.055Z,440
2017-06-26T09:15:03.948Z,445
2017-06-26T09:16:13.200Z,445
2017-06-26T09:17:22.092Z,480
2017-06-26T09:18:30.985Z,490
2017-06-26T09:19:40.209Z,505
2017-06-26T09:20:49.429Z,525
2017-06-26T09:21:58.475Z,535
2017-06-26T09:23:07.696Z,540
2017-06-26T09:24:16.920Z,540
2017-06-26T09:25:25.830Z,495
2017-06-26T09:26:34.723Z,485
2017-06-26T09:27:43.717Z,480
2017-06-26T09:28:52.613Z,455
2017-06-26T09:30:02.161Z,405
2017-06-26T09:31:11.053Z,350
2017-06-26T09:32:20.594Z,345
2017-06-26T09:33:29.959Z,360
2017-06-26T09:34:38.853Z,375
2017-06-26T09:35:47.746Z,340
2017-06-26T09:36:57.028Z,295
2017-06-26T09:38:06.582Z,290
2017-06-26T09:39:16.101Z,280
2017-06-26T09:40:25.005Z,285
2017-06-26T09:41:33.899Z,300
2017-06-26T09:42:42.787Z,320
2017-06-26T09:43:51.685Z,375
2017-06-26T09:45:01.055Z,400
2017-06-26T09:46:09.950Z,360
2017-06-26T09:47:19.169Z,320
2017-06-26T09:48:28.068Z,260
2017-06-26T09:49:36.976Z,225
2017-06-26T09:50:46.353Z,240
2017-06-26T09:51:55.248Z,240
2017-06-26T09:53:04.466Z,245
2017-06-26T09:54:14.014Z,270
2017-06-26T09:55:22.909Z,330
2017-06-26T09:56:32.108Z,345
2017-06-26T09:57:41.325Z,345
2017-06-26T09:58:50.218Z,430
2017-06-26T09:59:59.438Z,520
2017-06-26T10:01:08.656Z,585
2017-06-26T10:02:18.033Z,620
2017-06-26T10:03:27.245Z,580
2017-06-26T10:04:36.140Z,550
2017-06-26T10:05:45.042Z,555
2017-06-26T10:06:54.264Z,555
2017-06-26T10:08:03.732Z,480
2017-06-26T10:09:12.630Z,435
2017-06-26T10:10:21.531Z,535
2017-06-26T10:11:30.428Z,575
2017-06-26T10:12:39.326Z,590
2017-06-26T10:13:48.365Z,595
2017-06-26T10:14:57.258Z,560
2017-06-26T10:16:06.165Z,505
2017-06-26T10:17:15.382Z,505
2017-06-26T10:18:24.283Z,480
2017-06-26T10:19:33.552Z,475
2017-06-26T10:20:42.451Z,485
2017-06-26T10:21:52.322Z,475
2017-06-26T10:23:01.884Z,545
2017-06-26T10:24:12.429Z,670
2017-06-26T10:25:21.578Z,685
2017-06-26T10:26:30.800Z,625
2017-06-26T10:27:39.694Z,535
2017-06-26T10:28:48.587Z,500
2017-06-26T10:29:57.481Z,520
2017-06-26T10:31:06.677Z,520
2017-06-26T10:32:15.902Z,570
2017-06-26T10:33:24.800Z,660
2017-06-26T10:34:34.020Z,780
2017-06-26T10:35:42.921Z,785
2017-06-26T10:36:52.428Z,770
2017-06-26T10:38:01.321Z,845
2017-06-26T10:39:10.217Z,810
2017-06-26T10:40:19.768Z,770
2017-06-26T10:41:28.992Z,675
2017-06-26T10:42:38.043Z,580
2017-06-26T10:43:47.264Z,470
2017-06-26T10:44:56.161Z,405
2017-06-26T10:46:05.055Z,450
2017-06-26T10:47:13.962Z,600
2017-06-26T10:48:23.334Z,630
2017-06-26T10:49:32.231Z,695
2017-06-26T10:50:41.145Z,790
2017-06-26T10:51:50.045Z,800
2017-06-26T10:52:58.966Z,790
2017-06-26T10:54:07.969Z,805
2017-06-26T10:55:17.215Z,785
2017-06-26T10:56:26.124Z,770
2017-06-26T10:57:35.343Z,735
2017-06-26T10:58:44.242Z,665
2017-06-26T10:59:53.394Z,600
2017-06-26T11:01:02.289Z,555
2017-06-26T11:02:11.181Z,500
2017-06-26T11:03:20.074Z,480
2017-06-26T11:04:29.291Z,465
2017-06-26T11:05:38.383Z,485
2017-06-26T11:06:47.282Z,505
2017-06-26T11:07:56.501Z,505
2017-06-26T11:09:05.393Z,520
2017-06-26T11:10:14.623Z,540
2017-06-26T11:11:24.167Z,515
2017-06-26T11:12:33.065Z,485
2017-06-26T11:13:42.309Z,440
2017-06-26T11:14:51.201Z,440
2017-06-26T11:16:00.096Z,495
2017-06-26T11:17:09.146Z,480
2017-06-26T11:18:18.039Z,360
2017-06-26T11:19:26.934Z,320
2017-06-26T11:20:36.157Z,295
2017-06-26T11:21:46.024Z,280
2017-06-26T11:22:55.318Z,275
2017-06-26T11:24:04.537Z,280
2017-06-26T11:25:13.763Z,275
2017-06-26T11:26:22.654Z,275
2017-06-26T11:27:31.871Z,270
2017-06-26T11:28:40.811Z,280
2017-06-26T11:29:50.032Z,290
2017-06-26T11:30:59.599Z,300
2017-06-26T11:32:08.495Z,295
2017-06-26T11:33:17.386Z,305
2017-06-26T11:34:26.533Z,320
2017-06-26T11:35:35.424Z,345
2017-06-26T11:36:44.317Z,370
2017-06-26T11:37:53.540Z,415
2017-06-26T11:39:02.764Z,500
2017-06-26T11:40:11.659Z,415
2017-06-26T11:41:20.549Z,475
2017-06-26T11:42:29.445Z,490
2017-06-26T11:43:38.337Z,425
2017-06-26T11:44:47.566Z,425
2017-06-26T11:45:57.106Z,465
2017-06-26T11:47:06.647Z,520
2017-06-26T11:48:15.864Z,565
2017-06-26T11:49:25.086Z,610
2017-06-26T11:50:34.300Z,620
2017-06-26T11:51:43.344Z,725
2017-06-26T11:52:52.241Z,850
2017-06-26T11:54:01.132Z,850
2017-06-26T11:55:10.027Z,530
2017-06-26T11:56:18.923Z,480
2017-06-26T11:57:28.789Z,415
2017-06-26T11:58:38.675Z,425
2017-06-26T11:59:49.134Z,415
2017-06-26T12:00:58.358Z,440
2017-06-26T12:02:07.255Z,470
2017-06-26T12:03:16.574Z,505
2017-06-26T12:04:25.470Z,525
2017-06-26T12:05:35.027Z,580
2017-06-26T12:06:43.923Z,575
2017-06-26T12:07:52.815Z,535
2017-06-26T12:09:02.137Z,570
2017-06-26T12:10:11.698Z,580
2017-06-26T12:11:20.918Z,435
2017-06-26T12:12:29.817Z,345
2017-06-26T12:13:38.713Z,250
2017-06-26T12:14:47.909Z,210
2017-06-26T12:15:56.806Z,200
2017-06-26T12:17:06.347Z,225
2017-06-26T12:18:15.241Z,275
2017-06-26T12:19:24.135Z,330
2017-06-26T12:20:33.145Z,385
2017-06-26T12:21:43.197Z,470
2017-06-26T12:22:52.887Z,560
2017-06-26T12:24:02.163Z,610
2017-06-26T12:25:12.445Z,645
2017-06-26T12:26:22.595Z,735
2017-06-26T12:27:32.214Z,680
2017-06-26T12:28:42.027Z,700
2017-06-26T12:29:52.602Z,705
2017-06-26T12:31:02.141Z,660
2017-06-26T12:32:11.364Z,650
2017-06-26T12:33:21.063Z,745
2017-06-26T12:34:32.157Z,4360
2017-06-26T12:35:41.382Z,2880
2017-06-26T12:36:51.849Z,3355
2017-06-26T12:38:01.957Z,3480
2017-06-26T12:39:12.238Z,4635
2017-06-26T12:40:22.088Z,4060
2017-06-26T12:41:32.573Z,3990
2017-06-26T12:42:42.355Z,895
2017-06-26T12:43:52.100Z,1650
2017-06-26T12:45:02.413Z,680
2017-06-26T12:46:12.704Z,4170
2017-06-26T12:47:21.941Z,2915
2017-06-26T12:48:31.167Z,2660
2017-06-26T12:49:40.162Z,665
2017-06-26T12:50:49.064Z,550
2017-06-26T12:51:58.641Z,465
2017-06-26T12:53:07.863Z,525
2017-06-26T12:54:16.773Z,555
2017-06-26T12:55:25.718Z,605
2017-06-26T12:56:35.281Z,670
2017-06-26T12:57:44.179Z,720
2017-06-26T12:58:53.396Z,845
2017-06-26T13:00:02.298Z,3065
2017-06-26T13:01:11.594Z,4250
2017-06-26T13:02:20.815Z,1620
2017-06-26T13:03:29.722Z,4115
2017-06-26T13:04:38.651Z,1040
2017-06-26T13:05:47.873Z,4360
2017-06-26T13:06:57.070Z,1370
2017-06-26T13:08:05.968Z,3280
2017-06-26T13:09:14.875Z,3995
2017-06-26T13:10:24.108Z,4455
2017-06-26T13:11:33.341Z,3990
2017-06-26T13:12:42.665Z,1400
2017-06-26T13:13:51.601Z,785
2017-06-26T13:15:00.516Z,855
2017-06-26T13:16:09.418Z,1070
2017-06-26T13:17:18.646Z,780
2017-06-26T13:18:27.642Z,530
2017-06-26T13:19:36.893Z,510
2017-06-26T13:20:46.118Z,520
2017-06-26T13:21:55.368Z,550
2017-06-26T13:23:04.277Z,490
2017-06-26T13:24:13.701Z,450
2017-06-26T13:25:22.618Z,420
2017-06-26T13:26:32.163Z,380
2017-06-26T13:27:41.089Z,375
2017-06-26T13:28:49.998Z,395
2017-06-26T13:29:58.995Z,455
2017-06-26T13:31:08.256Z,505
2017-06-26T13:32:17.157Z,575
2017-06-26T13:33:26.053Z,735
2017-06-26T13:34:34.952Z,1755
2017-06-26T13:35:43.849Z,1150
2017-06-26T13:36:52.751Z,1475
2017-06-26T13:38:02.008Z,1230
2017-06-26T13:39:11.228Z,935
2017-06-26T13:40:20.451Z,1180
2017-06-26T13:41:29.696Z,910
2017-06-26T13:42:38.923Z,1700
2017-06-26T13:43:48.145Z,1240
2017-06-26T13:44:57.450Z,3945
2017-06-26T13:46:06.373Z,4320
2017-06-26T13:47:15.803Z,4575
2017-06-26T13:48:24.698Z,4480
2017-06-26T13:49:33.606Z,4285
2017-06-26T13:50:42.523Z,4290
2017-06-26T13:51:52.079Z,4385
2017-06-26T13:53:01.031Z,4350
2017-06-26T13:54:09.938Z,3640
2017-06-26T13:55:18.845Z,4690
2017-06-26T13:56:27.749Z,890
2017-06-26T13:57:36.662Z,805
2017-06-26T13:58:45.617Z,605
2017-06-26T13:59:54.535Z,520
2017-06-26T14:01:03.764Z,470
2017-06-26T14:02:13.004Z,445
2017-06-26T14:03:21.910Z,480
2017-06-26T14:04:31.292Z,565
2017-06-26T14:05:40.525Z,675
2017-06-26T14:06:49.757Z,775
2017-06-26T14:07:58.651Z,4360
2017-06-26T14:09:07.549Z,755
2017-06-26T14:10:17.037Z,710
2017-06-26T14:11:25.943Z,905
2017-06-26T14:12:34.843Z,885
2017-06-26T14:13:43.745Z,890
2017-06-26T14:14:52.649Z,975
2017-06-26T14:16:01.699Z,1175
2017-06-26T14:17:10.598Z,1245
2017-06-26T14:18:19.516Z,945
2017-06-26T14:19:28.742Z,4660
2017-06-26T14:20:37.645Z,3890
2017-06-26T14:21:47.022Z,3590
2017-06-26T14:22:55.937Z,3295
2017-06-26T14:24:04.837Z,3625
2017-06-26T14:25:13.742Z,2285
2017-06-26T14:26:22.649Z,965
2017-06-26T14:27:31.656Z,2650
2017-06-26T14:28:40.568Z,4170
2017-06-26T14:29:49.803Z,3750
2017-06-26T14:30:58.717Z,3085
2017-06-26T14:32:07.621Z,3875
2017-06-26T14:33:17.006Z,3730
2017-06-26T14:34:25.911Z,3955
2017-06-26T14:35:34.826Z,4115
2017-06-26T14:36:43.729Z,1515
2017-06-26T14:37:52.635Z,575
2017-06-26T14:39:01.669Z,500
2017-06-26T14:40:11.236Z,495
2017-06-26T14:41:20.145Z,460
2017-06-26T14:42:29.058Z,425
2017-06-26T14:43:37.961Z,485
2017-06-26T14:44:47.014Z,755
2017-06-26T14:45:56.565Z,2615
2017-06-26T14:47:05.794Z,910
2017-06-26T14:48:15.023Z,1095
2017-06-26T14:49:23.931Z,1055
2017-06-26T14:50:32.886Z,1500
2017-06-26T14:51:41.788Z,2885
2017-06-26T14:52:51.030Z,3665
2017-06-26T14:54:00.265Z,3650
2017-06-26T14:55:09.495Z,3355
2017-06-26T14:56:18.659Z,2380
2017-06-26T14:57:27.890Z,2530
2017-06-26T14:58:36.789Z,3655
2017-06-26T14:59:46.020Z,1290
2017-06-26T15:00:54.924Z,2395
2017-06-26T15:02:04.082Z,3550
2017-06-26T15:03:13.332Z,3335
2017-06-26T15:04:22.236Z,1740
2017-06-26T15:05:31.141Z,3575
2017-06-26T15:06:40.380Z,3455
2017-06-26T15:07:49.586Z,3430
2017-06-26T15:08:58.495Z,3450
2017-06-26T15:10:07.402Z,3430
2017-06-26T15:11:16.307Z,3355
2017-06-26T15:12:25.218Z,2720
2017-06-26T15:13:34.326Z,3380
2017-06-26T15:14:43.237Z,3380
2017-06-26T15:15:52.473Z,725
2017-06-26T15:17:01.707Z,625
2017-06-26T15:18:10.617Z,2455
2017-06-26T15:19:19.527Z,1820
2017-06-26T15:20:28.438Z,975
2017-06-26T15:21:37.345Z,3010
2017-06-26T15:22:46.251Z,845
2017-06-26T15:23:55.160Z,2840
2017-06-26T15:25:04.544Z,2990
2017-06-26T15:26:13.452Z,3005
2017-06-26T15:27:22.363Z,3055
2017-06-26T15:28:31.280Z,3130
2017-06-26T15:29:40.186Z,595
2017-06-26T15:30:49.574Z,2215
2017-06-26T15:31:58.803Z,3080
2017-06-26T15:33:08.032Z,3095
2017-06-26T15:34:17.266Z,3245
2017-06-26T15:35:26.185Z,3270
2017-06-26T15:36:35.094Z,1730
2017-06-26T15:37:44.010Z,2975
2017-06-26T15:38:53.246Z,2980
2017-06-26T15:40:02.483Z,3075
2017-06-26T15:41:11.393Z,640
2017-06-26T15:42:20.603Z,545
2017-06-26T15:43:29.512Z,625
2017-06-26T15:44:38.741Z,2220
2017-06-26T15:45:48.298Z,3140
2017-06-26T15:46:57.204Z,3345
2017-06-26T15:48:06.261Z,3320
2017-06-26T15:49:15.174Z,3260
2017-06-26T15:50:24.084Z,1570
2017-06-26T15:52:05.041Z,730
2017-06-26T15:53:14.097Z,850
2017-06-26T15:54:23.014Z,2225
2017-06-26T15:55:32.249Z,1145
2017-06-26T15:56:41.156Z,865
2017-06-26T15:57:50.062Z,1170
2017-06-26T15:58:59.069Z,1230
2017-06-26T16:00:07.981Z,555
2017-06-26T16:01:16.885Z,565
2017-06-26T16:02:25.788Z,475